createdAt,value
2022-09-27T00:01:12.122Z,100.00
2022-09-27T00:03:39.625Z,100.00
2022-09-27T00:06:14.011Z,100.00
2022-09-27T00:08:41.991Z,100.00
2022-09-27T00:11:21.134Z,100.00
2022-09-27T00:13:48.025Z,100.00
2022-09-27T00:16:15.136Z,100.00
2022-09-27T00:18:42.552Z,100.00
2022-09-27T00:21:13.398Z,100.00
2022-09-27T00:23:40.873Z,100.00
2022-09-27T00:26:11.387Z,100.00
2022-09-27T00:28:38.977Z,100.00
2022-09-27T00:31:32.244Z,100.00
2022-09-27T00:34:02.177Z,100.00
2022-09-27T00:36:30.871Z,100.00
2022-09-27T00:39:00.042Z,100.00
2022-09-27T00:41:32.750Z,100.00
2022-09-27T00:44:33.788Z,100.00
2022-09-27T00:47:14.761Z,100.00
2022-09-27T00:49:47.156Z,100.00
2022-09-27T00:52:23.876Z,100.00
2022-09-27T00:54:56.779Z,100.00
2022-09-27T00:57:24.156Z,100.00
2022-09-27T01:00:09.669Z,100.00
2022-09-27T01:02:41.743Z,100.00
2022-09-27T01:05:11.792Z,100.00
2022-09-27T01:07:38.876Z,100.00
2022-09-27T01:10:07.337Z,100.00
2022-09-27T01:12:46.238Z,100.00
2022-09-27T01:15:30.137Z,100.00
2022-09-27T01:18:22.969Z,100.00
2022-09-27T01:21:23.710Z,100.00
2022-09-27T01:24:11.561Z,100.00
2022-09-27T01:26:50.160Z,100.00
2022-09-27T01:29:49.021Z,100.00
2022-09-27T01:32:27.867Z,100.00
2022-09-27T01:35:11.790Z,100.00
2022-09-27T01:38:13.162Z,100.00
2022-09-27T01:41:06.263Z,100.00
2022-09-27T01:43:55.360Z,100.00
2022-09-27T01:46:42.235Z,100.00
2022-09-27T01:49:17.392Z,100.00
2022-09-27T01:52:13.168Z,100.00
2022-09-27T01:54:47.673Z,100.00
2022-09-27T01:57:25.651Z,100.00
2022-09-27T02:00:11.835Z,100.00
2022-09-27T02:03:09.552Z,100.00
2022-09-27T02:05:50.652Z,100.00
2022-09-27T02:08:43.932Z,100.00
2022-09-27T02:11:13.822Z,100.00
2022-09-27T02:14:06.068Z,100.00
2022-09-27T02:16:53.768Z,100.00
2022-09-27T02:19:54.070Z,100.00
2022-09-27T02:22:40.108Z,100.00
2022-09-27T02:25:19.010Z,100.00
2022-09-27T02:27:59.436Z,100.00
2022-09-27T02:30:26.878Z,100.00
2022-09-27T02:32:54.227Z,100.00
2022-09-27T02:35:35.580Z,100.00
2022-09-27T02:38:06.156Z,100.00
2022-09-27T02:40:37.228Z,100.00
2022-09-27T02:43:05.973Z,100.00
2022-09-27T02:46:20.456Z,100.00
2022-09-27T02:49:20.819Z,100.00
2022-09-27T02:52:11.891Z,100.00
2022-09-27T02:55:13.290Z,100.00
2022-09-27T02:57:58.593Z,100.00
2022-09-27T03:01:02.372Z,100.00
2022-09-27T03:03:53.965Z,100.00
2022-09-27T03:06:23.271Z,100.00
2022-09-27T03:08:51.208Z,100.00
2022-09-27T03:11:18.213Z,100.00
2022-09-27T03:14:07.358Z,100.00
2022-09-27T03:16:32.461Z,100.00
2022-09-27T03:18:59.410Z,100.00
2022-09-27T03:21:27.768Z,100.00
2022-09-27T03:23:54.857Z,100.00
2022-09-27T03:26:21.852Z,100.00
2022-09-27T03:28:49.099Z,100.00
2022-09-27T03:31:16.102Z,100.00
2022-09-27T03:33:43.046Z,100.00
2022-09-27T03:36:10.056Z,100.00
2022-09-27T03:38:37.002Z,100.00
2022-09-27T03:41:04.919Z,100.00
2022-09-27T03:43:31.811Z,100.00
2022-09-27T03:45:59.038Z,100.00
2022-09-27T03:48:28.234Z,100.00
2022-09-27T03:50:55.444Z,100.00
2022-09-27T03:53:22.579Z,100.00
2022-09-27T03:55:49.539Z,100.00
2022-09-27T03:58:16.610Z,100.00
2022-09-27T04:00:46.200Z,100.00
2022-09-27T04:03:13.536Z,100.00
2022-09-27T04:05:40.568Z,100.00
2022-09-27T04:08:07.866Z,100.00
2022-09-27T04:10:36.805Z,100.00
2022-09-27T04:13:04.793Z,100.00
2022-09-27T04:15:31.742Z,100.00
2022-09-27T04:17:58.642Z,100.00
2022-09-27T04:20:25.670Z,100.00
2022-09-27T04:22:52.568Z,100.00
2022-09-27T04:25:19.515Z,100.00
2022-09-27T04:27:48.303Z,100.00
2022-09-27T04:30:15.964Z,100.00
2022-09-27T04:32:44.761Z,100.00
2022-09-27T04:35:31.939Z,100.00
2022-09-27T04:37:59.974Z,100.00
2022-09-27T04:40:27.011Z,100.00
2022-09-27T04:42:54.118Z,100.00
2022-09-27T04:45:21.390Z,100.00
2022-09-27T04:47:50.458Z,100.00
2022-09-27T04:50:18.588Z,100.00
2022-09-27T04:52:50.493Z,100.00
2022-09-27T04:55:17.910Z,100.00
2022-09-27T04:57:44.804Z,100.00
2022-09-27T05:00:13.704Z,100.00
2022-09-27T05:02:40.693Z,100.00
2022-09-27T05:05:08.154Z,100.00
2022-09-27T05:07:35.858Z,100.00
2022-09-27T05:10:03.297Z,100.00
2022-09-27T05:12:30.198Z,100.00
2022-09-27T05:14:57.115Z,100.00
2022-09-27T05:17:24.145Z,100.00
2022-09-27T05:19:51.121Z,100.00
2022-09-27T05:22:18.479Z,100.00
2022-09-27T05:24:45.880Z,100.00
2022-09-27T05:27:20.452Z,100.00
2022-09-27T05:29:48.254Z,100.00
2022-09-27T05:32:15.918Z,100.00
2022-09-27T05:34:43.049Z,100.00
2022-09-27T05:37:10.650Z,100.00
2022-09-27T05:39:37.651Z,100.00
2022-09-27T05:42:04.968Z,100.00
2022-09-27T05:44:31.959Z,100.00
2022-09-27T05:47:04.238Z,100.00
2022-09-27T05:49:32.307Z,100.00
2022-09-27T05:51:59.300Z,100.00
2022-09-27T05:54:29.572Z,100.00
2022-09-27T05:57:00.690Z,100.00
2022-09-27T05:59:28.639Z,100.00
2022-09-27T06:01:55.646Z,100.00
2022-09-27T06:04:22.943Z,100.00
2022-09-27T06:06:49.979Z,100.00
2022-09-27T06:09:17.638Z,100.00
2022-09-27T06:11:45.507Z,100.00
2022-09-27T06:14:15.658Z,100.00
2022-09-27T06:16:42.712Z,100.00
2022-09-27T06:19:10.227Z,100.00
2022-09-27T06:21:37.611Z,100.00
2022-09-27T06:24:04.775Z,100.00
2022-09-27T06:26:31.921Z,100.00
2022-09-27T06:28:58.947Z,100.00
2022-09-27T06:31:25.850Z,100.00
2022-09-27T06:33:52.965Z,100.00
2022-09-27T06:36:19.956Z,99.63
2022-09-27T06:38:48.253Z,100.00
2022-09-27T06:41:15.311Z,100.00
2022-09-27T06:43:42.571Z,99.87
2022-09-27T06:46:09.563Z,100.00
2022-09-27T06:48:38.449Z,99.76
2022-09-27T06:51:06.382Z,100.00
2022-09-27T06:53:33.295Z,100.00
2022-09-27T06:56:01.504Z,100.00
2022-09-27T06:58:50.130Z,99.60
2022-09-27T07:01:18.217Z,99.10
2022-09-27T07:03:50.694Z,99.15
2022-09-27T07:06:22.526Z,98.30
2022-09-27T07:08:53.657Z,98.55
2022-09-27T07:11:22.653Z,97.58
2022-09-27T07:13:51.499Z,97.80
2022-09-27T07:16:19.106Z,98.35
2022-09-27T07:18:49.513Z,98.45
2022-09-27T07:21:16.602Z,97.98
2022-09-27T07:23:43.619Z,96.56
2022-09-27T07:26:11.189Z,96.68
2022-09-27T07:28:40.389Z,96.13
2022-09-27T07:31:09.077Z,96.47
2022-09-27T07:33:38.894Z,95.64
2022-09-27T07:36:11.493Z,95.56
2022-09-27T07:38:38.505Z,96.07
2022-09-27T07:41:14.008Z,96.00
2022-09-27T07:43:42.552Z,95.64
2022-09-27T07:46:10.815Z,94.81
2022-09-27T07:48:37.820Z,94.16
2022-09-27T07:51:07.761Z,94.41
2022-09-27T07:53:34.760Z,93.13
2022-09-27T07:56:02.164Z,94.20
2022-09-27T07:58:30.509Z,93.31
2022-09-27T08:01:00.690Z,93.21
2022-09-27T08:03:28.460Z,93.87
2022-09-27T08:05:55.424Z,93.87
2022-09-27T08:08:24.233Z,93.95
2022-09-27T08:10:51.263Z,94.10
2022-09-27T08:13:20.287Z,94.25
2022-09-27T08:15:48.699Z,95.21
2022-09-27T08:18:16.543Z,94.85
2022-09-27T08:20:43.673Z,94.54
2022-09-27T08:23:10.742Z,94.50
2022-09-27T08:25:37.766Z,94.70
2022-09-27T08:28:05.390Z,94.43
2022-09-27T08:30:33.109Z,94.59
2022-09-27T08:33:03.294Z,93.35
2022-09-27T08:35:33.926Z,93.54
2022-09-27T08:38:03.022Z,94.35
2022-09-27T08:41:38.163Z,91.40
2022-09-27T08:44:20.832Z,91.84
2022-09-27T08:47:17.240Z,94.20
2022-09-27T08:50:15.597Z,95.95
2022-09-27T08:53:05.675Z,96.04
2022-09-27T08:55:53.712Z,97.77
2022-09-27T08:58:28.619Z,96.85
2022-09-27T09:01:02.935Z,97.24
2022-09-27T09:03:34.630Z,95.43
2022-09-27T09:06:26.140Z,96.46
2022-09-27T09:09:35.182Z,96.08
2022-09-27T09:12:49.235Z,96.68
2022-09-27T09:15:19.234Z,93.93
2022-09-27T09:18:05.020Z,93.78
2022-09-27T09:21:05.736Z,93.62
2022-09-27T09:24:07.792Z,94.16
2022-09-27T09:27:05.432Z,95.43
2022-09-27T09:29:53.465Z,97.09
2022-09-27T09:33:06.466Z,96.76
2022-09-27T09:35:42.268Z,94.95
2022-09-27T09:38:24.964Z,95.71
2022-09-27T09:41:03.014Z,95.23
2022-09-27T09:43:52.635Z,96.41
2022-09-27T09:46:36.476Z,99.31
2022-09-27T09:49:27.396Z,98.62
2022-09-27T09:52:19.258Z,100.00
2022-09-27T09:55:02.591Z,100.00
2022-09-27T09:57:42.587Z,100.00
2022-09-27T10:00:18.893Z,100.00
2022-09-27T10:02:48.067Z,100.00
2022-09-27T10:05:19.964Z,100.00
2022-09-27T10:07:50.638Z,100.00
2022-09-27T10:10:20.601Z,100.00
2022-09-27T10:12:48.571Z,100.00
2022-09-27T10:15:23.987Z,99.56
2022-09-27T10:17:58.057Z,97.22
2022-09-27T10:20:39.199Z,97.71
2022-09-27T10:23:21.242Z,98.09
2022-09-27T10:25:56.763Z,97.62
2022-09-27T10:28:46.015Z,96.18
2022-09-27T10:31:18.151Z,97.87
2022-09-27T10:33:59.616Z,99.49
2022-09-27T10:36:36.576Z,98.61
2022-09-27T10:39:07.256Z,99.13
2022-09-27T10:41:36.634Z,100.00
2022-09-27T10:44:16.133Z,100.00
2022-09-27T10:46:45.178Z,98.94
2022-09-27T10:49:37.664Z,98.97
2022-09-27T10:52:14.295Z,100.00
2022-09-27T10:54:42.719Z,100.00
2022-09-27T10:57:32.558Z,98.14
2022-09-27T11:00:20.354Z,98.02
2022-09-27T11:02:57.385Z,95.02
2022-09-27T11:05:27.807Z,96.17
2022-09-27T11:07:58.351Z,97.49
2022-09-27T11:10:37.179Z,94.06
2022-09-27T11:13:20.515Z,97.03
2022-09-27T11:16:08.174Z,93.46
2022-09-27T11:18:47.083Z,93.75
2022-09-27T11:21:23.741Z,91.63
2022-09-27T11:24:34.891Z,90.11
2022-09-27T11:27:40.020Z,93.75
2022-09-27T11:30:24.016Z,91.12
2022-09-27T11:32:50.882Z,91.47
2022-09-27T11:36:11.431Z,90.72
2022-09-27T11:39:33.459Z,89.53
2022-09-27T11:42:08.235Z,88.32
2022-09-27T11:44:38.207Z,88.31
2022-09-27T11:47:45.948Z,87.74
2022-09-27T11:50:22.135Z,86.88
2022-09-27T11:53:00.445Z,87.21
2022-09-27T11:55:56.571Z,87.83
2022-09-27T11:58:51.403Z,84.53
2022-09-27T12:01:51.908Z,85.67
2022-09-27T12:05:08.324Z,84.93
2022-09-27T12:08:31.968Z,86.05
2022-09-27T12:11:28.088Z,85.89
2022-09-27T12:14:23.505Z,85.97
2022-09-27T12:16:54.995Z,86.90
2022-09-27T12:19:39.832Z,88.79
2022-09-27T12:22:13.088Z,92.38
2022-09-27T12:24:40.835Z,91.08
2022-09-27T12:27:50.664Z,92.05
2022-09-27T12:30:17.837Z,90.85
2022-09-27T12:32:56.606Z,92.31
2022-09-27T12:35:29.180Z,93.26
2022-09-27T12:38:03.684Z,94.37
2022-09-27T12:40:46.892Z,92.10
2022-09-27T12:43:27.614Z,93.27
2022-09-27T12:46:25.441Z,90.89
2022-09-27T12:49:29.760Z,93.62
2022-09-27T12:52:08.133Z,95.63
2022-09-27T12:55:02.599Z,98.63
2022-09-27T12:57:39.248Z,98.42
2022-09-27T13:00:08.958Z,98.35
2022-09-27T13:03:32.400Z,99.01
2022-09-27T13:06:25.911Z,99.31
2022-09-27T13:09:10.970Z,99.15
2022-09-27T13:11:47.674Z,98.86
2022-09-27T13:14:23.165Z,99.17
2022-09-27T13:16:51.443Z,97.49
2022-09-27T13:19:42.639Z,99.15
2022-09-27T13:22:27.956Z,98.40
2022-09-27T13:24:56.027Z,98.80
2022-09-27T13:27:25.479Z,99.24
2022-09-27T13:30:19.914Z,98.36
2022-09-27T13:33:08.663Z,96.61
2022-09-27T13:35:36.394Z,98.10
2022-09-27T13:38:07.058Z,99.06
2022-09-27T13:40:36.630Z,97.58
2022-09-27T13:43:18.086Z,99.20
2022-09-27T13:45:58.704Z,99.19
2022-09-27T13:48:47.812Z,99.55
2022-09-27T13:51:33.976Z,100.00
2022-09-27T13:54:10.075Z,100.00
2022-09-27T13:56:37.993Z,100.00
2022-09-27T13:59:12.355Z,100.00
2022-09-27T14:01:53.372Z,100.00
2022-09-27T14:04:23.028Z,100.00
2022-09-27T14:06:58.350Z,99.11
2022-09-27T14:09:32.030Z,100.00
2022-09-27T14:12:03.839Z,99.36
2022-09-27T14:14:33.015Z,96.99
2022-09-27T14:17:01.515Z,97.08
2022-09-27T14:19:29.187Z,95.95
2022-09-27T14:22:13.111Z,94.05
2022-09-27T14:24:40.006Z,96.52
2022-09-27T14:27:25.640Z,92.29
2022-09-27T14:30:03.268Z,94.23
2022-09-27T14:32:33.968Z,94.30
2022-09-27T14:35:48.336Z,94.36
2022-09-27T14:41:09.963Z,93.00
2022-09-27T14:43:44.018Z,93.38
2022-09-27T14:46:28.903Z,90.85
2022-09-27T14:48:56.493Z,91.16
2022-09-27T14:51:32.048Z,90.67
2022-09-27T14:54:01.458Z,88.82
2022-09-27T14:56:38.792Z,88.75
2022-09-27T14:59:17.655Z,89.59
2022-09-27T15:01:52.444Z,89.67
2022-09-27T15:04:22.271Z,88.05
2022-09-27T15:06:49.770Z,88.73
2022-09-27T15:09:18.566Z,89.86
2022-09-27T15:11:52.785Z,90.43
2022-09-27T15:14:21.806Z,91.19
2022-09-27T15:16:52.421Z,91.85
2022-09-27T15:19:29.117Z,94.03
2022-09-27T15:22:00.158Z,93.57
2022-09-27T15:24:44.887Z,94.82
2022-09-27T15:27:22.752Z,95.88
2022-09-27T15:29:58.452Z,92.77
2022-09-27T15:32:28.485Z,91.02
2022-09-27T15:34:56.944Z,89.91
2022-09-27T15:37:29.152Z,87.14
2022-09-27T15:40:27.449Z,87.06
2022-09-27T15:43:02.130Z,87.00
2022-09-27T15:45:35.410Z,84.60
2022-09-27T15:48:17.868Z,85.63
2022-09-27T15:50:44.925Z,85.12
2022-09-27T15:53:11.974Z,86.67
2022-09-27T15:55:45.157Z,85.54
2022-09-27T15:58:16.891Z,86.01
2022-09-27T16:00:59.830Z,83.91
2022-09-27T16:03:27.302Z,85.00
2022-09-27T16:05:56.779Z,85.35
2022-09-27T16:08:25.581Z,84.76
2022-09-27T16:10:58.892Z,84.92
2022-09-27T16:13:32.473Z,85.64
2022-09-27T16:16:02.285Z,87.18
2022-09-27T16:18:30.781Z,85.94
2022-09-27T16:20:59.207Z,85.27
2022-09-27T16:23:26.367Z,85.25
2022-09-27T16:25:53.870Z,85.78
2022-09-27T16:28:21.382Z,85.90
2022-09-27T16:30:48.516Z,85.63
2022-09-27T16:33:15.777Z,86.38
2022-09-27T16:35:42.872Z,85.49
2022-09-27T16:38:10.236Z,86.37
2022-09-27T16:40:38.028Z,86.88
2022-09-27T16:43:07.364Z,86.98
2022-09-27T16:45:36.397Z,86.83
2022-09-27T16:48:03.768Z,87.24
2022-09-27T16:50:49.164Z,86.69
2022-09-27T16:53:16.447Z,87.37
2022-09-27T16:55:43.428Z,87.96
2022-09-27T16:58:10.474Z,88.01
2022-09-27T17:00:37.689Z,88.07
2022-09-27T17:03:04.853Z,88.23
2022-09-27T17:05:31.909Z,88.43
2022-09-27T17:07:58.931Z,89.22
2022-09-27T17:10:25.975Z,90.76
2022-09-27T17:12:53.016Z,90.38
2022-09-27T17:15:20.426Z,90.23
2022-09-27T17:17:50.829Z,90.73
2022-09-27T17:20:18.262Z,90.92
2022-09-27T17:22:45.338Z,90.72
2022-09-27T17:25:12.330Z,89.96
2022-09-27T17:27:39.227Z,91.13
2022-09-27T17:30:07.296Z,92.06
2022-09-27T17:32:34.878Z,92.68
2022-09-27T17:35:02.636Z,93.56
2022-09-27T17:37:30.295Z,92.92
2022-09-27T17:39:57.661Z,93.40
2022-09-27T17:42:25.279Z,93.82
2022-09-27T17:44:52.334Z,93.60
2022-09-27T17:47:38.099Z,94.85
2022-09-27T17:50:24.019Z,94.89
2022-09-27T17:52:52.188Z,95.67
2022-09-27T17:55:19.266Z,95.98
2022-09-27T17:57:50.408Z,96.65
2022-09-27T18:00:18.613Z,96.93
2022-09-27T18:02:46.081Z,97.36
2022-09-27T18:05:13.489Z,98.35
2022-09-27T18:07:40.431Z,98.14
2022-09-27T18:10:07.914Z,98.75
2022-09-27T18:12:35.253Z,98.61
2022-09-27T18:15:03.213Z,99.10
2022-09-27T18:17:30.626Z,97.38
2022-09-27T18:19:59.898Z,97.24
2022-09-27T18:22:31.096Z,98.19
2022-09-27T18:24:58.424Z,96.95
2022-09-27T18:27:25.456Z,97.87
2022-09-27T18:29:52.750Z,96.70
2022-09-27T18:32:19.657Z,96.50
2022-09-27T18:34:46.574Z,96.06
2022-09-27T18:37:13.514Z,97.29
2022-09-27T18:39:40.916Z,98.06
2022-09-27T18:42:09.017Z,98.85
2022-09-27T18:44:35.973Z,97.88
2022-09-27T18:47:03.047Z,99.20
2022-09-27T18:49:33.837Z,98.31
2022-09-27T18:52:02.586Z,97.98
2022-09-27T18:54:29.546Z,98.19
2022-09-27T18:56:56.484Z,99.35
2022-09-27T18:59:24.035Z,98.63
2022-09-27T19:01:51.701Z,98.33
2022-09-27T19:04:25.037Z,99.47
2022-09-27T19:06:53.980Z,99.84
2022-09-27T19:09:21.092Z,100.00
2022-09-27T19:11:48.391Z,100.00
2022-09-27T19:14:18.875Z,100.00
2022-09-27T19:16:47.424Z,99.61
2022-09-27T19:19:16.600Z,100.00
2022-09-27T19:21:43.815Z,99.03
2022-09-27T19:24:11.773Z,100.00
2022-09-27T19:26:38.951Z,99.94
2022-09-27T19:29:06.508Z,100.00
2022-09-27T19:31:33.900Z,100.00
2022-09-27T19:34:00.986Z,100.00
2022-09-27T19:36:28.973Z,100.00
2022-09-27T19:38:58.867Z,99.62
2022-09-27T19:41:26.584Z,100.00
2022-09-27T19:43:55.493Z,100.00
2022-09-27T19:46:24.407Z,100.00
2022-09-27T19:48:53.106Z,100.00
2022-09-27T19:51:26.040Z,100.00
2022-09-27T19:53:54.269Z,100.00
2022-09-27T19:56:22.609Z,100.00
2022-09-27T19:58:50.077Z,100.00
2022-09-27T20:01:23.130Z,100.00
2022-09-27T20:03:52.561Z,100.00
2022-09-27T20:06:21.723Z,100.00
2022-09-27T20:08:49.037Z,99.93
2022-09-27T20:11:22.386Z,99.73
2022-09-27T20:13:53.757Z,99.54
2022-09-27T20:16:24.427Z,100.00
2022-09-27T20:18:54.711Z,100.00
2022-09-27T20:21:24.589Z,100.00
2022-09-27T20:23:55.053Z,100.00
2022-09-27T20:26:25.110Z,100.00
2022-09-27T20:28:57.058Z,100.00
2022-09-27T20:31:30.726Z,100.00
2022-09-27T20:33:57.666Z,100.00
2022-09-27T20:36:31.226Z,100.00
2022-09-27T20:39:05.267Z,100.00
2022-09-27T20:41:42.524Z,100.00
2022-09-27T20:44:15.461Z,100.00
2022-09-27T20:46:44.330Z,100.00
2022-09-27T20:49:16.202Z,100.00
2022-09-27T20:51:45.609Z,100.00
2022-09-27T20:54:13.202Z,100.00
2022-09-27T20:56:43.610Z,100.00
2022-09-27T20:59:22.689Z,100.00
2022-09-27T21:01:52.477Z,100.00
2022-09-27T21:04:21.560Z,100.00
2022-09-27T21:06:48.469Z,100.00
2022-09-27T21:09:19.082Z,100.00
2022-09-27T21:11:48.688Z,100.00
2022-09-27T21:14:16.217Z,100.00
2022-09-27T21:16:43.366Z,100.00
2022-09-27T21:19:11.434Z,100.00
2022-09-27T21:21:38.446Z,100.00
2022-09-27T21:24:14.710Z,100.00
2022-09-27T21:26:41.687Z,100.00
2022-09-27T21:29:11.674Z,100.00
2022-09-27T21:31:38.945Z,100.00
2022-09-27T21:34:06.790Z,100.00
2022-09-27T21:36:37.719Z,100.00
2022-09-27T21:39:08.535Z,100.00
2022-09-27T21:41:35.724Z,100.00
2022-09-27T21:44:05.031Z,100.00
2022-09-27T21:46:32.292Z,100.00
2022-09-27T21:49:04.296Z,100.00
2022-09-27T21:51:40.167Z,100.00
2022-09-27T21:54:14.517Z,100.00
2022-09-27T21:56:43.017Z,100.00
2022-09-27T21:59:13.693Z,100.00
2022-09-27T22:01:44.149Z,100.00
2022-09-27T22:04:11.464Z,100.00
2022-09-27T22:06:39.329Z,100.00
2022-09-27T22:09:11.593Z,100.00
2022-09-27T22:11:44.281Z,100.00
2022-09-27T22:14:12.363Z,100.00
2022-09-27T22:16:39.463Z,100.00
2022-09-27T22:19:07.143Z,100.00
2022-09-27T22:21:39.435Z,100.00
2022-09-27T22:24:12.879Z,100.00
2022-09-27T22:26:44.839Z,100.00
2022-09-27T22:29:11.699Z,100.00
2022-09-27T22:31:38.718Z,100.00
2022-09-27T22:34:08.209Z,100.00
2022-09-27T22:36:35.546Z,100.00
2022-09-27T22:39:02.887Z,100.00
2022-09-27T22:41:30.411Z,100.00
2022-09-27T22:43:57.963Z,100.00
2022-09-27T22:46:25.313Z,100.00
2022-09-27T22:48:52.917Z,100.00
2022-09-27T22:51:19.905Z,100.00
2022-09-27T22:53:47.008Z,100.00
2022-09-27T22:56:16.068Z,100.00
2022-09-27T22:58:44.111Z,100.00
2022-09-27T23:01:19.218Z,100.00
2022-09-27T23:03:47.858Z,100.00
2022-09-27T23:06:16.907Z,100.00
2022-09-27T23:08:44.307Z,100.00
2022-09-27T23:11:22.668Z,100.00
2022-09-27T23:13:50.987Z,100.00
2022-09-27T23:16:21.177Z,100.00
2022-09-27T23:18:48.175Z,100.00
2022-09-27T23:21:17.084Z,100.00
2022-09-27T23:23:46.034Z,100.00
2022-09-27T23:26:16.490Z,100.00
2022-09-27T23:28:43.805Z,100.00
2022-09-27T23:31:16.946Z,100.00
2022-09-27T23:33:47.453Z,100.00
2022-09-27T23:36:17.810Z,100.00
2022-09-27T23:38:46.465Z,100.00
2022-09-27T23:41:15.414Z,100.00
2022-09-27T23:43:42.756Z,100.00
2022-09-27T23:46:10.163Z,100.00
2022-09-27T23:48:38.624Z,100.00
2022-09-27T23:51:10.049Z,100.00
2022-09-27T23:53:38.032Z,100.00
2022-09-27T23:56:16.827Z,100.00
2022-09-27T23:58:45.964Z,100.00
